createdAt,value
2019-06-01T00:01:10.109Z,87.30
2019-06-01T00:04:00.559Z,87.40
2019-06-01T00:06:30.144Z,88.00
2019-06-01T00:08:59.655Z,87.90
2019-06-01T00:11:29.256Z,88.00
2019-06-01T00:14:00.209Z,88.40
2019-06-01T00:16:29.723Z,88.40
2019-06-01T00:18:59.235Z,88.40
2019-06-01T00:21:28.772Z,88.50
2019-06-01T00:23:59.416Z,88.40
2019-06-01T00:26:31.265Z,88.50
2019-06-01T00:29:01.389Z,88.40
2019-06-01T00:31:30.959Z,88.60
2019-06-01T00:34:00.667Z,88.70
2019-06-01T00:36:31.223Z,88.60
2019-06-01T00:39:00.727Z,89.70
2019-06-01T00:41:31.691Z,89.40
2019-06-01T00:44:01.199Z,89.30
2019-06-01T00:46:30.711Z,89.30
2019-06-01T00:49:00.218Z,90.20
2019-06-01T00:51:29.744Z,90.00
2019-06-01T00:53:59.249Z,90.70
2019-06-01T00:56:30.198Z,90.60
2019-06-01T00:58:59.757Z,90.50
2019-06-01T01:01:30.319Z,90.60
2019-06-01T01:03:59.840Z,90.30
2019-06-01T01:06:29.263Z,90.40
2019-06-01T01:08:58.848Z,90.50
2019-06-01T01:11:31.609Z,90.40
2019-06-01T01:14:01.300Z,90.20
2019-06-01T01:16:30.832Z,89.90
2019-06-01T01:19:00.388Z,90.00
2019-06-01T01:21:29.980Z,90.00
2019-06-01T01:23:59.476Z,90.20
2019-06-01T01:26:29.006Z,90.00
2019-06-01T01:28:58.548Z,90.10
2019-06-01T01:31:29.128Z,90.00
2019-06-01T01:33:58.808Z,90.20
2019-06-01T01:36:28.289Z,90.20
2019-06-01T01:38:58.439Z,90.60
2019-06-01T01:41:30.372Z,90.50
2019-06-01T01:43:59.871Z,90.70
2019-06-01T01:46:29.332Z,90.60
2019-06-01T01:48:58.884Z,90.70
2019-06-01T01:51:28.345Z,90.30
2019-06-01T01:53:58.785Z,90.50
2019-06-01T01:56:28.412Z,90.50
2019-06-01T01:58:58.657Z,90.90
2019-06-01T02:01:28.112Z,90.70
2019-06-01T02:03:59.137Z,90.60
2019-06-01T02:06:29.298Z,90.80
2019-06-01T02:08:59.402Z,90.50
2019-06-01T02:11:28.990Z,91.00
2019-06-01T02:13:59.793Z,91.40
2019-06-01T02:16:29.555Z,91.20
2019-06-01T02:19:00.442Z,91.00
2019-06-01T02:21:30.148Z,91.40
2019-06-01T02:24:01.065Z,91.50
2019-06-01T02:26:30.716Z,91.10
2019-06-01T02:29:01.481Z,91.50
2019-06-01T02:31:41.728Z,91.10
2019-06-01T02:34:05.859Z,91.00
2019-06-01T02:36:34.715Z,91.20
2019-06-01T02:39:23.585Z,91.60
2019-06-01T02:41:54.788Z,91.50
2019-06-01T02:44:24.246Z,91.20
2019-06-01T02:46:55.374Z,91.00
2019-06-01T02:49:25.033Z,90.70
2019-06-01T02:51:55.087Z,90.90
2019-06-01T02:54:25.661Z,90.70
2019-06-01T02:56:55.841Z,90.40
2019-06-01T02:59:25.466Z,90.40
2019-06-01T03:02:01.393Z,90.50
2019-06-01T03:04:27.889Z,91.60
2019-06-01T03:06:59.547Z,91.90
2019-06-01T03:09:30.056Z,91.80
2019-06-01T03:12:00.864Z,91.80
2019-06-01T03:14:33.845Z,92.10
2019-06-01T03:17:05.903Z,92.40
2019-06-01T03:19:38.601Z,92.40
2019-06-01T03:22:10.285Z,92.30
2019-06-01T03:24:39.842Z,92.20
2019-06-01T03:27:12.481Z,92.30
2019-06-01T03:29:46.222Z,91.50
2019-06-01T03:32:33.719Z,91.20
2019-06-01T03:34:46.831Z,91.50
2019-06-01T03:37:17.459Z,91.50
2019-06-01T03:39:47.193Z,91.20
2019-06-01T03:42:17.275Z,91.00
2019-06-01T03:44:46.840Z,90.80
2019-06-01T03:47:16.300Z,90.70
2019-06-01T03:49:45.798Z,91.10
2019-06-01T03:52:15.248Z,91.20
2019-06-01T03:54:44.731Z,91.40
2019-06-01T03:57:14.194Z,91.40
2019-06-01T03:59:43.700Z,91.10
2019-06-01T04:02:13.282Z,91.20
2019-06-01T04:04:42.791Z,91.50
2019-06-01T04:07:12.521Z,91.60
2019-06-01T04:09:41.912Z,91.70
2019-06-01T04:12:11.977Z,91.60
2019-06-01T04:14:41.691Z,91.60
2019-06-01T04:17:12.242Z,91.40
2019-06-01T04:19:42.811Z,91.30
2019-06-01T04:22:13.843Z,91.20
2019-06-01T04:24:44.377Z,91.20
2019-06-01T04:27:13.874Z,91.90
2019-06-01T04:29:43.350Z,92.00
2019-06-01T04:32:12.970Z,92.00
2019-06-01T04:34:42.378Z,92.00
2019-06-01T04:37:11.857Z,91.60
2019-06-01T04:39:41.362Z,91.50
2019-06-01T04:42:11.869Z,91.90
2019-06-01T04:44:41.498Z,91.60
2019-06-01T04:47:10.948Z,91.70
2019-06-01T04:49:40.685Z,92.50
2019-06-01T04:52:11.903Z,92.30
2019-06-01T04:54:41.266Z,92.20
2019-06-01T04:57:11.026Z,93.00
2019-06-01T04:59:40.507Z,93.10
2019-06-01T05:02:11.480Z,92.30
2019-06-01T05:04:43.637Z,92.70
2019-06-01T05:07:13.523Z,93.40
2019-06-01T05:09:43.071Z,93.40
2019-06-01T05:12:13.645Z,92.70
2019-06-01T05:14:43.239Z,93.10
2019-06-01T05:17:25.166Z,93.90
2019-06-01T05:19:54.643Z,93.10
2019-06-01T05:22:25.945Z,92.90
2019-06-01T05:24:55.462Z,93.10
2019-06-01T05:27:25.070Z,93.00
2019-06-01T05:29:55.963Z,92.80
2019-06-01T05:32:25.447Z,93.30
2019-06-01T05:34:54.990Z,93.50
2019-06-01T05:37:25.579Z,93.70
2019-06-01T05:39:55.084Z,93.20
2019-06-01T05:42:24.541Z,93.10
2019-06-01T05:44:54.041Z,92.70
2019-06-01T05:47:23.505Z,92.60
2019-06-01T05:49:52.972Z,91.90
2019-06-01T05:52:23.043Z,92.00
2019-06-01T05:54:53.629Z,91.80
2019-06-01T05:57:23.333Z,92.10
2019-06-01T05:59:52.771Z,91.70
2019-06-01T06:02:22.298Z,91.10
2019-06-01T06:04:54.202Z,91.20
2019-06-01T06:07:24.849Z,91.20
2019-06-01T06:09:54.344Z,91.00
2019-06-01T06:12:23.910Z,90.20
2019-06-01T06:14:53.426Z,90.60
2019-06-01T06:17:24.334Z,90.30
2019-06-01T06:19:55.130Z,89.60
2019-06-01T06:22:25.626Z,90.10
2019-06-01T06:24:55.089Z,90.20
2019-06-01T06:27:24.671Z,88.10
2019-06-01T06:29:54.155Z,88.70
2019-06-01T06:32:23.664Z,86.50
2019-06-01T06:34:53.143Z,87.20
2019-06-01T06:37:23.798Z,87.60
2019-06-01T06:39:52.559Z,87.70
2019-06-01T06:42:22.346Z,86.90
2019-06-01T06:44:51.879Z,86.00
2019-06-01T06:47:21.397Z,85.80
2019-06-01T06:49:50.847Z,86.10
2019-06-01T06:52:21.478Z,84.20
2019-06-01T06:54:50.303Z,84.70
2019-06-01T06:57:20.152Z,84.00
2019-06-01T06:59:49.747Z,83.10
2019-06-01T07:02:19.247Z,82.70
2019-06-01T07:04:48.784Z,82.90
2019-06-01T07:07:18.269Z,82.60
2019-06-01T07:09:48.263Z,81.10
2019-06-01T07:12:17.646Z,82.30
2019-06-01T07:14:47.102Z,79.00
2019-06-01T07:17:16.649Z,78.70
2019-06-01T07:19:47.235Z,79.30
2019-06-01T07:22:17.241Z,77.70
2019-06-01T07:24:46.879Z,78.40
2019-06-01T07:27:16.316Z,79.50
2019-06-01T07:29:45.839Z,77.60
2019-06-01T07:32:15.291Z,79.50
2019-06-01T07:34:44.722Z,78.10
2019-06-01T07:37:14.186Z,76.50
2019-06-01T07:39:43.695Z,74.70
2019-06-01T07:42:13.181Z,76.60
2019-06-01T07:44:42.636Z,76.90
2019-06-01T07:47:12.132Z,75.90
2019-06-01T07:49:41.584Z,76.10
2019-06-01T07:52:13.286Z,74.50
2019-06-01T07:54:42.336Z,74.30
2019-06-01T07:57:11.730Z,75.90
2019-06-01T07:59:41.164Z,75.80
2019-06-01T08:02:10.792Z,76.50
2019-06-01T08:04:53.364Z,74.40
2019-06-01T08:07:12.462Z,72.60
2019-06-01T08:09:42.023Z,70.60
2019-06-01T08:12:11.571Z,71.10
2019-06-01T08:14:41.118Z,73.50
2019-06-01T08:17:12.222Z,71.00
2019-06-01T08:19:41.611Z,68.90
2019-06-01T08:22:11.141Z,68.90
2019-06-01T08:24:40.602Z,70.70
2019-06-01T08:27:10.157Z,68.60
2019-06-01T08:29:39.560Z,69.10
2019-06-01T08:32:09.235Z,66.70
2019-06-01T08:34:38.614Z,69.30
2019-06-01T08:37:08.342Z,67.30
2019-06-01T08:39:37.788Z,67.90
2019-06-01T08:42:08.406Z,66.00
2019-06-01T08:44:37.872Z,66.70
2019-06-01T08:47:07.419Z,64.10
2019-06-01T08:49:39.594Z,63.50
2019-06-01T08:52:09.094Z,64.30
2019-06-01T08:54:38.529Z,65.00
2019-06-01T08:57:07.997Z,62.90
2019-06-01T08:59:37.411Z,61.70
2019-06-01T09:02:07.711Z,63.60
2019-06-01T09:04:37.237Z,64.00
2019-06-01T09:07:06.728Z,64.70
2019-06-01T09:09:36.181Z,62.30
2019-06-01T09:12:05.971Z,64.30
2019-06-01T09:14:35.645Z,65.50
2019-06-01T09:17:05.866Z,62.90
2019-06-01T09:19:35.748Z,61.70
2019-06-01T09:22:05.563Z,62.10
2019-06-01T09:24:36.201Z,63.20
2019-06-01T09:27:05.865Z,61.50
2019-06-01T09:29:36.204Z,59.20
2019-06-01T09:32:10.825Z,61.40
2019-06-01T09:34:38.032Z,63.10
2019-06-01T09:37:07.583Z,61.70
2019-06-01T09:39:37.398Z,59.20
2019-06-01T09:42:06.962Z,58.00
2019-06-01T09:44:37.368Z,58.80
2019-06-01T09:47:07.028Z,57.90
2019-06-01T09:49:37.891Z,57.00
2019-06-01T09:52:12.622Z,59.00
2019-06-01T09:54:43.468Z,57.60
2019-06-01T09:57:13.090Z,55.70
2019-06-01T09:59:42.606Z,57.90
2019-06-01T10:02:12.174Z,56.80
2019-06-01T10:04:41.648Z,56.90
2019-06-01T10:07:12.014Z,53.90
2019-06-01T10:09:42.168Z,54.30
2019-06-01T10:12:11.872Z,53.00
2019-06-01T10:14:42.442Z,54.80
2019-06-01T10:17:12.156Z,55.30
2019-06-01T10:19:43.037Z,55.60
2019-06-01T10:22:13.496Z,55.30
2019-06-01T10:24:42.989Z,54.00
2019-06-01T10:27:12.481Z,54.40
2019-06-01T10:29:43.091Z,54.10
2019-06-01T10:32:12.841Z,52.30
2019-06-01T10:34:42.348Z,53.30
2019-06-01T10:37:11.976Z,52.90
2019-06-01T10:39:41.449Z,54.60
2019-06-01T10:42:10.933Z,53.40
2019-06-01T10:44:45.223Z,51.20
2019-06-01T10:47:11.595Z,53.10
2019-06-01T10:49:42.105Z,53.30
2019-06-01T10:52:11.797Z,54.40
2019-06-01T10:54:42.361Z,52.10
2019-06-01T10:57:12.110Z,53.40
2019-06-01T10:59:42.621Z,52.00
2019-06-01T11:02:13.510Z,51.10
2019-06-01T11:04:45.641Z,51.40
2019-06-01T11:07:15.151Z,50.20
2019-06-01T11:09:44.581Z,51.70
2019-06-01T11:12:14.001Z,51.20
2019-06-01T11:14:43.475Z,51.50
2019-06-01T11:17:12.920Z,50.30
2019-06-01T11:19:43.743Z,50.40
2019-06-01T11:22:16.077Z,51.00
2019-06-01T11:24:45.497Z,48.40
2019-06-01T11:27:15.059Z,49.00
2019-06-01T11:29:51.053Z,48.60
2019-06-01T11:32:15.628Z,48.30
2019-06-01T11:34:57.280Z,47.30
2019-06-01T11:37:27.329Z,47.80
2019-06-01T11:39:56.869Z,48.20
2019-06-01T11:42:26.305Z,47.30
2019-06-01T11:44:55.835Z,46.50
2019-06-01T11:47:25.459Z,46.20
2019-06-01T11:49:54.963Z,48.30
2019-06-01T11:52:24.450Z,45.90
2019-06-01T11:54:54.078Z,45.40
2019-06-01T11:57:23.539Z,47.10
2019-06-01T11:59:53.052Z,45.00
2019-06-01T12:02:22.562Z,44.10
2019-06-01T12:04:52.136Z,47.10
2019-06-01T12:07:21.594Z,45.60
2019-06-01T12:09:51.088Z,45.50
2019-06-01T12:12:20.550Z,45.50
2019-06-01T12:14:50.034Z,45.00
2019-06-01T12:17:19.508Z,41.60
2019-06-01T12:19:49.320Z,44.20
2019-06-01T12:22:18.795Z,46.00
2019-06-01T12:24:48.296Z,44.00
2019-06-01T12:27:17.021Z,43.90
2019-06-01T12:29:47.862Z,43.10
2019-06-01T12:32:17.523Z,43.70
2019-06-01T12:34:48.507Z,42.30
2019-06-01T12:37:34.515Z,43.20
2019-06-01T12:39:52.142Z,43.20
2019-06-01T12:42:20.502Z,43.10
2019-06-01T12:44:52.147Z,40.70
2019-06-01T12:47:22.910Z,42.90
2019-06-01T12:49:55.590Z,42.60
2019-06-01T12:52:25.053Z,42.50
2019-06-01T12:54:54.506Z,41.50
2019-06-01T12:57:25.600Z,42.00
2019-06-01T12:59:56.189Z,41.20
2019-06-01T13:02:25.640Z,40.80
2019-06-01T13:04:55.197Z,39.50
2019-06-01T13:07:24.742Z,39.10
2019-06-01T13:09:54.294Z,38.00
2019-06-01T13:12:23.822Z,38.40
2019-06-01T13:14:53.296Z,39.50
2019-06-01T13:17:22.800Z,39.90
2019-06-01T13:19:52.276Z,40.90
2019-06-01T13:22:21.770Z,41.40
2019-06-01T13:24:52.046Z,40.60
2019-06-01T13:27:21.679Z,39.70
2019-06-01T13:29:52.280Z,38.20
2019-06-01T13:32:23.128Z,37.40
2019-06-01T13:34:53.625Z,39.00
2019-06-01T13:37:23.255Z,39.80
2019-06-01T13:39:57.957Z,39.00
2019-06-01T13:42:23.820Z,39.20
2019-06-01T13:44:53.699Z,38.20
2019-06-01T13:47:23.259Z,37.80
2019-06-01T13:49:54.032Z,37.20
2019-06-01T13:52:23.704Z,39.00
2019-06-01T13:54:53.490Z,37.40
2019-06-01T13:57:24.058Z,36.90
2019-06-01T13:59:54.900Z,39.70
2019-06-01T14:02:24.477Z,37.50
2019-06-01T14:04:54.252Z,38.20
2019-06-01T14:07:24.023Z,37.60
2019-06-01T14:09:53.773Z,35.20
2019-06-01T14:12:22.501Z,36.30
2019-06-01T14:14:53.598Z,36.40
2019-06-01T14:17:23.160Z,35.50
2019-06-01T14:19:55.914Z,37.20
2019-06-01T14:22:26.701Z,37.60
2019-06-01T14:25:10.373Z,36.90
2019-06-01T14:27:29.666Z,35.40
2019-06-01T14:29:59.157Z,36.50
2019-06-01T14:32:29.607Z,35.20
2019-06-01T14:34:59.083Z,37.50
2019-06-01T14:37:28.517Z,37.00
2019-06-01T14:39:58.077Z,35.70
2019-06-01T14:42:27.621Z,36.40
2019-06-01T14:44:58.136Z,33.60
2019-06-01T14:47:27.703Z,36.60
2019-06-01T14:49:58.079Z,37.00
2019-06-01T14:52:27.626Z,34.00
2019-06-01T14:54:58.128Z,35.30
2019-06-01T14:57:28.914Z,36.50
2019-06-01T14:59:59.899Z,36.70
2019-06-01T15:02:29.403Z,38.30
2019-06-01T15:04:59.863Z,40.00
2019-06-01T15:07:29.408Z,39.80
2019-06-01T15:09:59.020Z,38.80
2019-06-01T15:12:28.497Z,38.20
2019-06-01T15:14:57.997Z,39.40
2019-06-01T15:17:27.499Z,39.00
2019-06-01T15:19:58.198Z,39.20
2019-06-01T15:22:27.920Z,39.60
2019-06-01T15:24:58.460Z,38.10
2019-06-01T15:27:28.006Z,40.60
2019-06-01T15:29:58.881Z,39.70
2019-06-01T15:32:28.643Z,40.10
2019-06-01T15:34:59.919Z,38.90
2019-06-01T15:37:30.346Z,38.50
2019-06-01T15:39:59.797Z,38.10
2019-06-01T15:42:32.614Z,38.80
2019-06-01T15:45:02.573Z,39.50
2019-06-01T15:47:32.383Z,39.20
2019-06-01T15:50:02.614Z,40.80
2019-06-01T15:52:32.242Z,41.60
2019-06-01T15:55:02.878Z,42.40
2019-06-01T15:57:32.494Z,40.10
2019-06-01T16:00:03.088Z,40.30
2019-06-01T16:02:34.066Z,41.40
2019-06-01T16:05:07.608Z,42.20
2019-06-01T16:07:37.204Z,43.30
2019-06-01T16:10:08.786Z,43.10
2019-06-01T16:12:38.535Z,43.60
2019-06-01T16:15:09.230Z,44.80
2019-06-01T16:17:38.835Z,45.50
2019-06-01T16:20:09.429Z,45.20
2019-06-01T16:22:39.263Z,45.00
2019-06-01T16:25:09.059Z,45.90
2019-06-01T16:27:38.551Z,45.20
2019-06-01T16:30:09.459Z,46.10
2019-06-01T16:32:39.881Z,46.20
2019-06-01T16:35:10.058Z,45.40
2019-06-01T16:37:39.696Z,42.90
2019-06-01T16:40:10.796Z,43.60
2019-06-01T16:42:40.546Z,44.20
2019-06-01T16:45:12.815Z,46.70
2019-06-01T16:47:42.245Z,45.40
2019-06-01T16:50:12.311Z,45.30
2019-06-01T16:52:42.004Z,45.30
2019-06-01T16:55:12.501Z,44.30
2019-06-01T16:57:42.022Z,44.20
2019-06-01T17:00:14.973Z,45.50
2019-06-01T17:02:44.549Z,47.70
2019-06-01T17:05:15.061Z,48.40
2019-06-01T17:07:44.580Z,48.50
2019-06-01T17:10:25.896Z,47.60
2019-06-01T17:12:46.642Z,48.10
2019-06-01T17:15:18.905Z,48.20
2019-06-01T17:17:48.490Z,48.80
2019-06-01T17:20:51.671Z,49.10
2019-06-01T17:23:26.732Z,48.40
2019-06-01T17:25:53.073Z,48.10
2019-06-01T17:28:23.752Z,47.90
2019-06-01T17:30:53.591Z,48.90
2019-06-01T17:33:23.257Z,50.40
2019-06-01T17:35:52.768Z,51.30
2019-06-01T17:38:22.170Z,51.50
2019-06-01T17:40:51.770Z,50.80
2019-06-01T17:43:21.337Z,52.10
2019-06-01T17:45:50.870Z,53.40
2019-06-01T17:48:26.513Z,53.80
2019-06-01T17:50:54.622Z,51.90
2019-06-01T17:53:25.816Z,52.20
2019-06-01T17:55:55.472Z,54.00
2019-06-01T17:58:25.380Z,54.40
2019-06-01T18:00:55.028Z,55.30
2019-06-01T18:03:27.602Z,55.60
2019-06-01T18:05:57.185Z,55.80
2019-06-01T18:08:26.808Z,55.50
2019-06-01T18:10:56.325Z,56.40
2019-06-01T18:13:25.920Z,56.50
2019-06-01T18:15:55.629Z,57.20
2019-06-01T18:18:25.058Z,57.10
2019-06-01T18:20:54.638Z,57.00
2019-06-01T18:23:24.536Z,56.70
2019-06-01T18:25:56.376Z,56.90
2019-06-01T18:28:25.693Z,56.30
2019-06-01T18:30:55.193Z,56.10
2019-06-01T18:33:24.985Z,55.60
2019-06-01T18:35:54.449Z,55.60
2019-06-01T18:38:23.937Z,56.00
2019-06-01T18:41:06.528Z,55.50
2019-06-01T18:43:24.603Z,56.10
2019-06-01T18:45:54.227Z,56.00
2019-06-01T18:48:26.712Z,56.50
2019-06-01T18:50:56.218Z,56.70
2019-06-01T18:53:26.212Z,56.70
2019-06-01T18:55:55.866Z,56.60
2019-06-01T18:58:25.630Z,56.60
2019-06-01T19:00:56.651Z,56.50
2019-06-01T19:03:26.141Z,56.50
2019-06-01T19:05:57.103Z,56.70
2019-06-01T19:08:27.442Z,56.60
2019-06-01T19:10:57.041Z,57.10
2019-06-01T19:13:28.149Z,57.60
2019-06-01T19:15:57.686Z,57.80
2019-06-01T19:18:27.186Z,57.50
2019-06-01T19:20:56.635Z,58.20
2019-06-01T19:23:27.381Z,58.40
2019-06-01T19:25:56.957Z,58.60
2019-06-01T19:28:26.558Z,58.50
2019-06-01T19:30:56.102Z,59.30
2019-06-01T19:33:26.145Z,60.10
2019-06-01T19:35:57.235Z,59.70
2019-06-01T19:38:28.976Z,59.90
2019-06-01T19:40:58.612Z,60.50
2019-06-01T19:43:28.176Z,61.00
2019-06-01T19:45:57.924Z,61.00
2019-06-01T19:48:28.947Z,62.00
2019-06-01T19:51:00.529Z,61.80
2019-06-01T19:53:30.001Z,62.50
2019-06-01T19:55:59.599Z,62.90
2019-06-01T19:58:29.297Z,63.20
2019-06-01T20:00:58.795Z,63.00
2019-06-01T20:03:28.366Z,63.50
2019-06-01T20:05:57.857Z,63.90
2019-06-01T20:08:27.351Z,64.50
2019-06-01T20:10:56.809Z,65.20
2019-06-01T20:13:26.459Z,66.30
2019-06-01T20:15:58.011Z,65.90
2019-06-01T20:18:27.582Z,66.70
2019-06-01T20:20:57.245Z,67.30
2019-06-01T20:23:26.977Z,67.80
2019-06-01T20:25:56.607Z,67.10
2019-06-01T20:28:27.341Z,67.10
2019-06-01T20:30:56.921Z,66.80
2019-06-01T20:33:31.987Z,66.70
2019-06-01T20:36:02.574Z,66.50
2019-06-01T20:38:32.859Z,67.00
2019-06-01T20:41:02.444Z,67.00
2019-06-01T20:43:31.926Z,67.10
2019-06-01T20:46:02.068Z,67.40
2019-06-01T20:48:31.684Z,67.50
2019-06-01T20:51:01.379Z,67.20
2019-06-01T20:53:30.963Z,68.20
2019-06-01T20:56:00.638Z,68.00
2019-06-01T20:58:30.718Z,68.30
2019-06-01T21:01:01.745Z,68.40
2019-06-01T21:03:31.439Z,69.60
2019-06-01T21:06:00.947Z,69.10
2019-06-01T21:08:30.471Z,69.20
2019-06-01T21:11:00.028Z,70.00
2019-06-01T21:13:29.675Z,69.90
2019-06-01T21:15:59.206Z,69.30
2019-06-01T21:18:28.652Z,69.50
2019-06-01T21:20:58.215Z,70.60
2019-06-01T21:23:27.650Z,69.60
2019-06-01T21:25:57.447Z,69.80
2019-06-01T21:28:27.024Z,69.80
2019-06-01T21:30:56.584Z,69.70
2019-06-01T21:33:28.717Z,69.90
2019-06-01T21:35:58.162Z,70.20
2019-06-01T21:38:27.834Z,70.30
2019-06-01T21:40:57.403Z,70.10
2019-06-01T21:43:34.998Z,69.70
2019-06-01T21:45:58.084Z,69.60
2019-06-01T21:48:27.541Z,69.90
2019-06-01T21:50:57.055Z,70.30
2019-06-01T21:53:26.709Z,70.60
2019-06-01T21:55:56.256Z,70.50
2019-06-01T21:58:27.374Z,70.50
2019-06-01T22:00:56.915Z,71.20
2019-06-01T22:03:27.361Z,70.10
2019-06-01T22:05:57.021Z,70.60
2019-06-01T22:08:27.600Z,70.30
2019-06-01T22:10:57.478Z,70.90
2019-06-01T22:13:28.592Z,70.60
2019-06-01T22:15:58.350Z,70.60
2019-06-01T22:18:27.994Z,71.80
2019-06-01T22:20:58.511Z,72.20
2019-06-01T22:23:28.246Z,71.10
2019-06-01T22:25:57.834Z,71.50
2019-06-01T22:28:28.473Z,72.00
2019-06-01T22:30:59.013Z,71.60
2019-06-01T22:33:28.842Z,72.10
2019-06-01T22:35:58.453Z,71.50
2019-06-01T22:38:27.995Z,73.00
2019-06-01T22:40:57.483Z,72.70
2019-06-01T22:43:43.418Z,72.80
2019-06-01T22:45:58.308Z,72.70
2019-06-01T22:48:29.193Z,72.70
2019-06-01T22:50:58.770Z,73.20
2019-06-01T22:53:28.407Z,73.40
2019-06-01T22:55:58.095Z,73.10
2019-06-01T22:58:27.810Z,73.40
2019-06-01T23:00:57.299Z,74.30
2019-06-01T23:03:28.100Z,75.10
2019-06-01T23:05:57.743Z,74.50
2019-06-01T23:08:27.403Z,74.30
2019-06-01T23:10:57.114Z,75.40
2019-06-01T23:13:26.581Z,76.10
2019-06-01T23:15:58.443Z,76.80
2019-06-01T23:18:28.046Z,76.60
2019-06-01T23:20:58.600Z,75.60
2019-06-01T23:23:28.171Z,77.20
2019-06-01T23:25:57.764Z,76.90
2019-06-01T23:28:28.593Z,77.50
2019-06-01T23:30:58.265Z,76.90
2019-06-01T23:33:28.790Z,76.90
2019-06-01T23:35:58.441Z,79.90
2019-06-01T23:38:28.707Z,79.70
2019-06-01T23:40:58.382Z,78.60
2019-06-01T23:43:28.872Z,78.80
2019-06-01T23:45:58.557Z,79.90
2019-06-01T23:48:29.217Z,78.70
2019-06-01T23:50:58.849Z,81.10
2019-06-01T23:53:29.490Z,79.50
2019-06-01T23:55:58.342Z,80.70
2019-06-01T23:58:28.108Z,80.30
